63CN weather

Meadowlark Field
Livermore, California, United States

Public forecast

Using degrees Fahrenheit for public forecast. Weather courtesy of forecast.io.

Closest aviation weather report (METAR) to Meadowlark Field

Closest report is Livermore Municipal Airport, 6.3 nm (11.6 km) WNW. Retrieved 2019/10/16 03:53 UTC (30 minutes ago):

KLVK 160353Z 00000KT 10SM CLR 17/09 A3001 RMK AO2 SLP162 T01670089

Closest aviation forecast (TAF) to Meadowlark Field

Closest forecast is Livermore Municipal Airport, 6.3 nm (11.6 km) WNW. Retrieved 2019-10-16 00:27 UTC (4 hours ago):

TAF KLVK 152325Z 1600/1624 27006KT P6SM SKC FM160600 VRB03KT P6SM FEW200 FM161200 VRB03KT P6SM BKN200 FM162100 27006KT P6SM BKN200